Time;durP1;ratioP1;P1;durP2;ratioP2;P2;SDS_P1;SDS_P2;PMS_P1;PMS_P2;Temp;Humidity;BMP_temperature;BMP_pressure;BME280_temperature;BME280_humidity;BME280_pressure;Samples;Min_cycle;Max_cycle;Signal;HPM_P1;HPM_P2
2021/11/29 00:00:18;;;;;;;2.22;1.00;;;;;;;1.26;82.01;100573.06;5083785;28;20012;-60
2021/11/29 00:02:47;;;;;;;3.00;1.20;;;;;;;1.32;82.00;100579.97;5084418;28;20035;-61
2021/11/29 00:05:15;;;;;;;1.13;1.02;;;;;;;1.40;81.96;100574.81;5068606;28;20031;-62
2021/11/29 00:07:40;;;;;;;0.85;0.75;;;;;;;1.45;81.51;100570.47;5064706;28;20036;-61
2021/11/29 00:10:05;;;;;;;2.28;1.20;;;;;;;1.45;82.08;100570.47;5061895;28;20020;-60
2021/11/29 00:12:32;;;;;;;1.35;1.10;;;;;;;1.46;82.43;100561.81;5073503;28;20028;-60
2021/11/29 00:14:57;;;;;;;0.98;0.82;;;;;;;1.46;82.34;100566.13;5073036;28;20040;-60
2021/11/29 00:17:23;;;;;;;2.45;1.00;;;;;;;1.38;82.50;100569.59;5070543;28;20043;-60
2021/11/29 00:19:48;;;;;;;1.98;0.90;;;;;;;1.31;82.70;100574.78;5074233;28;20150;-59
2021/11/29 00:22:13;;;;;;;3.83;1.00;;;;;;;1.25;82.49;100568.75;5064229;28;20025;-61
2021/11/29 00:24:39;;;;;;;1.20;0.88;;;;;;;1.20;82.57;100577.41;5061386;28;20032;-60
2021/11/29 00:27:04;;;;;;;3.13;1.40;;;;;;;1.04;83.40;100563.53;5062852;28;20032;-59
2021/11/29 00:29:30;;;;;;;1.88;1.48;;;;;;;0.98;83.46;100554.00;5070265;28;20023;-59
2021/11/29 00:31:55;;;;;;;2.30;1.20;;;;;;;0.87;83.65;100553.97;5083605;28;20475;-59
2021/11/29 00:34:21;;;;;;;1.60;1.40;;;;;;;0.84;83.92;100565.22;5068946;28;20060;-60
2021/11/29 00:36:47;;;;;;;9.68;1.60;;;;;;;0.82;84.34;100568.69;5074772;28;20020;-58
2021/11/29 00:39:12;;;;;;;3.85;1.80;;;;;;;0.82;84.40;100579.06;5082087;28;20061;-59
2021/11/29 00:41:38;;;;;;;6.22;2.50;;;;;;;0.93;84.30;100598.09;5069674;28;20039;-59
2021/11/29 00:44:03;;;;;;;5.15;2.15;;;;;;;0.96;83.99;100612.84;5076135;28;20472;-59
2021/11/29 00:46:29;;;;;;;4.32;1.40;;;;;;;1.05;83.67;100623.22;5076305;28;20085;-59
2021/11/29 00:48:54;;;;;;;1.23;1.00;;;;;;;1.09;83.60;100616.31;5083112;28;20462;-59
2021/11/29 00:51:19;;;;;;;1.20;1.10;;;;;;;1.16;83.41;100620.66;5082876;28;20070;-60
2021/11/29 00:53:46;;;;;;;1.25;1.15;;;;;;;1.16;83.47;100633.63;5085275;28;20071;-60
2021/11/29 00:56:12;;;;;;;3.35;0.77;;;;;;;1.20;83.35;100632.75;5074026;28;20475;-60
2021/11/29 00:58:37;;;;;;;1.52;1.30;;;;;;;1.20;83.51;100648.34;5067406;28;20165;-59
2021/11/29 01:01:03;;;;;;;0.68;0.68;;;;;;;1.23;83.17;100645.75;5072387;28;20125;-58
2021/11/29 01:03:29;;;;;;;1.00;1.00;;;;;;;1.16;83.20;100646.59;5081840;28;20077;-59
2021/11/29 01:05:55;;;;;;;3.58;2.13;;;;;;;1.10;83.44;100638.78;5086547;28;20111;-57
2021/11/29 01:08:20;;;;;;;4.20;2.35;;;;;;;1.03;83.96;100639.66;5084735;28;20184;-55
2021/11/29 01:10:45;;;;;;;5.55;2.83;;;;;;;0.99;84.22;100644.81;5083311;28;20083;-58
2021/11/29 01:13:11;;;;;;;3.42;1.63;;;;;;;1.00;84.09;100633.56;5078992;28;20553;-56
2021/11/29 01:15:37;;;;;;;5.45;1.40;;;;;;;1.06;84.19;100624.09;5066210;28;20067;-56
2021/11/29 01:18:11;;;;;;;3.45;2.45;;;;;;;1.11;83.77;100617.16;5066446;28;20036;-56
2021/11/29 01:20:39;;;;;;;4.47;2.90;;;;;;;1.11;84.13;100610.25;5066099;28;20556;-56
2021/11/29 01:23:04;;;;;;;5.50;2.83;;;;;;;1.18;83.36;100612.88;5076041;28;20490;-56
2021/11/29 01:25:31;;;;;;;4.20;2.58;;;;;;;1.16;83.80;100609.38;5069727;28;20020;-56
2021/11/29 01:27:56;;;;;;;4.22;2.63;;;;;;;1.07;83.46;100597.25;5084716;28;20042;-55
2021/11/29 01:30:21;;;;;;;3.53;2.08;;;;;;;0.95;83.89;100608.50;5084702;28;20050;-55
2021/11/29 01:32:47;;;;;;;2.40;2.10;;;;;;;0.84;84.39;100603.28;5084585;28;20039;-55
2021/11/29 01:35:12;;;;;;;2.85;1.90;;;;;;;0.80;84.98;100607.59;5066270;28;20363;-52
2021/11/29 01:37:37;;;;;;;4.72;1.70;;;;;;;0.82;84.95;100623.16;5084948;28;20059;-55
2021/11/29 01:40:06;;;;;;;1.27;1.17;;;;;;;0.91;84.44;100628.38;5075676;28;20612;-53
2021/11/29 01:42:31;;;;;;;0.90;0.90;;;;;;;0.94;84.03;100636.19;5069014;28;20037;-56
2021/11/29 01:44:57;;;;;;;2.47;1.25;;;;;;;1.02;83.92;100658.69;5064350;28;20024;-56
2021/11/29 01:47:23;;;;;;;1.00;1.00;;;;;;;1.10;83.45;100656.97;5065002;28;20024;-56
2021/11/29 01:49:48;;;;;;;1.63;1.50;;;;;;;1.16;83.52;100682.94;5071311;28;20046;-56
2021/11/29 01:52:13;;;;;;;4.25;1.60;;;;;;;1.14;83.52;100663.88;5083612;28;20458;-56
2021/11/29 01:54:39;;;;;;;2.42;1.25;;;;;;;1.18;83.43;100657.88;5070073;28;20082;-58
2021/11/29 01:57:04;;;;;;;1.98;1.45;;;;;;;1.21;83.31;100628.44;5069867;28;20059;-54
2021/11/29 01:59:30;;;;;;;3.25;1.10;;;;;;;1.21;83.05;100634.47;5076009;28;20052;-55
2021/11/29 02:01:55;;;;;;;3.03;0.80;;;;;;;1.28;82.63;100629.31;5097383;22;20546;-71
2021/11/29 02:04:21;;;;;;;3.10;0.85;;;;;;;1.23;82.85;100624.97;5043805;28;20053;-70
2021/11/29 02:06:46;;;;;;;2.45;1.00;;;;;;;1.26;82.50;100624.97;5035235;28;20029;-70
2021/11/29 02:09:11;;;;;;;2.83;0.90;;;;;;;1.20;82.79;100637.09;5042315;28;20120;-66
2021/11/29 02:11:37;;;;;;;1.75;1.55;;;;;;;1.19;82.42;100638.81;5046521;28;20029;-72
2021/11/29 02:14:03;;;;;;;2.15;1.88;;;;;;;1.04;83.01;100633.59;5044960;28;20500;-72
2021/11/29 02:16:29;;;;;;;2.50;2.30;;;;;;;0.94;83.45;100631.00;5030530;28;20044;-72
2021/11/29 02:18:54;;;;;;;2.50;2.35;;;;;;;0.87;83.68;100629.22;5039321;28;20021;-71
2021/11/29 02:21:22;;;;;;;6.32;3.00;;;;;;;0.81;83.95;100624.03;5036114;28;20021;-70
2021/11/29 02:23:50;;;;;;;2.97;2.78;;;;;;;0.70;84.37;100632.66;5041373;28;20426;-71
2021/11/29 02:26:17;;;;;;;2.78;2.58;;;;;;;0.69;84.29;100630.06;5044568;28;20150;-70
2021/11/29 02:28:45;;;;;;;3.03;2.67;;;;;;;0.57;84.42;100623.09;5045660;28;20013;-71
2021/11/29 02:31:15;;;;;;;5.10;3.42;;;;;;;0.49;84.83;100625.63;5042955;28;20031;-72
2021/11/29 02:33:40;;;;;;;5.68;3.45;;;;;;;0.36;84.66;100616.94;5029347;28;20056;-71
2021/11/29 02:36:06;;;;;;;4.60;3.10;;;;;;;0.30;85.24;100609.13;5044345;28;20121;-71
2021/11/29 02:38:32;;;;;;;7.63;3.78;;;;;;;0.22;85.48;100607.38;5030517;28;20018;-70
2021/11/29 02:40:57;;;;;;;6.20;4.05;;;;;;;0.17;86.13;100611.66;5039795;28;20025;-70
2021/11/29 02:43:23;;;;;;;6.90;4.15;;;;;;;0.21;86.56;100605.63;5038540;28;20037;-70
2021/11/29 02:45:48;;;;;;;5.38;4.25;;;;;;;0.26;86.51;100608.25;5033377;28;20021;-70
2021/11/29 02:48:13;;;;;;;4.65;4.10;;;;;;;0.29;86.92;100615.16;5045066;28;20032;-71
2021/11/29 02:50:39;;;;;;;4.57;3.83;;;;;;;0.32;86.77;100607.41;5044063;28;20059;-69
2021/11/29 02:53:10;;;;;;;4.93;4.07;;;;;;;0.37;86.33;100611.75;5039768;28;20143;-70
2021/11/29 02:55:38;;;;;;;4.70;4.30;;;;;;;0.39;85.90;100611.75;5042474;28;20107;-70
2021/11/29 02:58:04;;;;;;;9.57;4.95;;;;;;;0.38;85.92;100615.22;5038372;28;20514;-70
2021/11/29 03:00:29;;;;;;;6.22;4.60;;;;;;;0.36;86.19;100607.44;5039247;28;20483;-71
2021/11/29 03:03:09;;;;;;;7.43;4.18;;;;;;;0.38;86.13;100607.44;5044399;28;20110;-71
2021/11/29 03:05:36;;;;;;;6.75;4.97;;;;;;;0.39;86.37;100616.09;5039793;28;20055;-71
2021/11/29 03:08:01;;;;;;;7.65;4.97;;;;;;;0.46;86.16;100629.09;5044396;28;20028;-71
2021/11/29 03:10:28;;;;;;;6.72;5.13;;;;;;;0.49;85.99;100642.03;5042703;28;20021;-70
2021/11/29 03:12:53;;;;;;;7.43;5.00;;;;;;;0.52;85.71;100637.75;5042085;28;20017;-69
2021/11/29 03:15:18;;;;;;;3.85;3.55;;;;;;;0.54;85.61;100644.66;5040262;28;20037;-69
2021/11/29 03:17:45;;;;;;;4.50;4.05;;;;;;;0.58;85.30;100651.63;5041437;28;20052;-70
2021/11/29 03:20:12;;;;;;;11.20;3.72;;;;;;;0.61;84.90;100637.78;5035134;28;20029;-69
2021/11/29 03:22:37;;;;;;;3.95;3.33;;;;;;;0.60;84.93;100652.47;5043714;28;20488;-70
2021/11/29 03:25:03;;;;;;;4.32;2.72;;;;;;;0.56;85.20;100660.22;5036255;28;20120;-69
2021/11/29 03:27:29;;;;;;;10.10;4.13;;;;;;;0.53;85.21;100665.41;5044426;28;20107;-70
2021/11/29 03:29:54;;;;;;;8.02;4.03;;;;;;;0.56;85.68;100670.59;5043389;28;20499;-71
2021/11/29 03:32:21;;;;;;;5.25;3.80;;;;;;;0.62;85.54;100686.19;5043721;28;20052;-70
2021/11/29 03:34:47;;;;;;;7.03;4.78;;;;;;;0.77;84.52;100684.53;5043916;28;20033;-71
2021/11/29 03:37:12;;;;;;;9.13;3.33;;;;;;;0.87;83.59;100655.16;5041925;28;20029;-69
2021/11/29 03:39:38;;;;;;;4.45;2.95;;;;;;;0.94;83.41;100653.47;5033411;28;20026;-68
2021/11/29 03:42:05;;;;;;;5.93;3.05;;;;;;;1.05;82.68;100662.13;5030275;28;20339;-70
2021/11/29 03:44:32;;;;;;;4.93;2.90;;;;;;;1.14;81.84;100658.69;5024546;28;20029;-70
2021/11/29 03:46:57;;;;;;;7.78;2.95;;;;;;;1.23;81.29;100653.53;5036191;28;20013;-70
2021/11/29 03:49:23;;;;;;;5.70;2.90;;;;;;;1.26;81.19;100653.53;5024745;28;20036;-70
2021/11/29 03:51:49;;;;;;;5.88;2.50;;;;;;;1.27;81.06;100654.41;5033387;28;20068;-69
2021/11/29 03:54:14;;;;;;;6.70;2.55;;;;;;;1.31;80.87;100660.47;5043629;28;20500;-67
2021/11/29 03:56:40;;;;;;;4.85;2.33;;;;;;;1.30;80.66;100654.41;5039284;28;20055;-71
2021/11/29 03:59:06;;;;;;;7.40;2.63;;;;;;;1.26;81.01;100652.66;5041739;28;20013;-70
2021/11/29 04:01:31;;;;;;;7.90;2.55;;;;;;;1.21;81.24;100650.06;5035431;28;20029;-70
2021/11/29 04:03:56;;;;;;;7.20;2.60;;;;;;;1.16;81.85;100646.59;5044051;28;20047;-70
2021/11/29 04:06:22;;;;;;;4.05;2.17;;;;;;;1.04;81.91;100641.38;5040711;28;20029;-72
2021/11/29 04:08:47;;;;;;;5.78;2.20;;;;;;;0.91;82.31;100645.66;5034258;28;20030;-70
2021/11/29 04:11:13;;;;;;;5.50;2.70;;;;;;;0.78;82.77;100650.81;5022526;28;20476;-71
2021/11/29 04:13:41;;;;;;;5.13;2.78;;;;;;;0.69;83.11;100650.78;5043708;28;20032;-71
2021/11/29 04:16:06;;;;;;;4.30;2.53;;;;;;;0.58;83.51;100653.34;5040036;28;20454;-72
2021/11/29 04:18:34;;;;;;;10.95;3.97;;;;;;;0.56;83.72;100649.84;5042167;28;20043;-71
2021/11/29 04:20:59;;;;;;;7.50;2.40;;;;;;;0.47;83.74;100659.34;5038920;28;20442;-69
2021/11/29 04:23:25;;;;;;;6.93;1.77;;;;;;;0.46;83.86;100654.16;5043468;28;20033;-68
2021/11/29 04:25:56;;;;;;;3.00;1.98;;;;;;;0.48;83.68;100653.28;5045509;28;20036;-69
2021/11/29 04:28:22;;;;;;;5.43;2.33;;;;;;;0.55;83.44;100651.59;5035962;28;20032;-69
2021/11/29 04:30:47;;;;;;;7.85;2.28;;;;;;;0.63;82.93;100661.97;5035888;28;20033;-69
2021/11/29 04:33:13;;;;;;;5.22;1.35;;;;;;;0.84;81.32;100673.34;5029987;28;20387;-69
2021/11/29 04:35:38;;;;;;;6.20;1.55;;;;;;;1.05;79.73;100684.66;5046656;28;20029;-69
2021/11/29 04:38:04;;;;;;;4.30;1.20;;;;;;;1.23;78.28;100704.56;5046237;28;21067;-70
2021/11/29 04:40:30;;;;;;;8.13;1.20;;;;;;;1.47;76.31;100701.16;5041012;28;20025;-70
2021/11/29 04:42:55;;;;;;;6.70;1.30;;;;;;;1.74;75.30;100693.41;5031539;28;20021;-69
2021/11/29 04:45:20;;;;;;;9.18;1.25;;;;;;;1.84;75.94;100683.88;5047688;28;20506;-69
2021/11/29 04:47:46;;;;;;;4.32;1.33;;;;;;;1.77;76.22;100680.41;5047597;28;20025;-69
2021/11/29 04:50:11;;;;;;;6.00;1.00;;;;;;;1.67;76.61;100682.16;5045084;28;20039;-70
2021/11/29 04:52:37;;;;;;;5.05;1.00;;;;;;;1.60;77.20;100683.88;5045492;28;20021;-68
2021/11/29 04:55:03;;;;;;;5.00;0.88;;;;;;;1.56;77.42;100678.69;5047446;28;20040;-69
2021/11/29 04:57:29;;;;;;;5.95;1.85;;;;;;;1.51;78.24;100673.50;5047307;28;20025;-69
2021/11/29 04:59:55;;;;;;;8.35;1.25;;;;;;;1.47;78.49;100682.13;5047537;28;20029;-71
2021/11/29 05:02:21;;;;;;;6.18;1.00;;;;;;;1.45;78.43;100671.75;5038082;28;20344;-70
2021/11/29 05:04:46;;;;;;;2.88;1.10;;;;;;;1.44;78.51;100672.59;5047206;28;20083;-70
2021/11/29 05:07:13;;;;;;;5.28;0.70;;;;;;;1.33;79.13;100675.19;5039209;28;20123;-70
2021/11/29 05:09:40;;;;;;;2.05;0.70;;;;;;;1.23;79.96;100679.50;5039769;28;20074;-70
2021/11/29 05:12:07;;;;;;;3.95;0.90;;;;;;;1.07;80.61;100682.91;5026049;28;20055;-70
2021/11/29 05:14:32;;;;;;;3.63;0.82;;;;;;;0.97;81.21;100682.88;5042539;28;20066;-70
2021/11/29 05:16:57;;;;;;;6.13;0.90;;;;;;;0.82;81.81;100682.81;5047149;28;20029;-69
2021/11/29 05:19:23;;;;;;;7.85;1.55;;;;;;;0.68;82.10;100694.00;5041803;28;20021;-69
2021/11/29 05:21:48;;;;;;;8.27;1.58;;;;;;;0.59;82.40;100699.13;5046929;28;20090;-69
2021/11/29 05:24:14;;;;;;;2.78;0.90;;;;;;;0.45;82.92;100694.75;5046236;28;20078;-69
2021/11/29 05:26:39;;;;;;;3.88;1.00;;;;;;;0.40;83.49;100704.25;5047426;28;20029;-71
2021/11/29 05:29:04;;;;;;;5.40;1.08;;;;;;;0.35;83.78;100695.56;5046824;28;20604;-70
2021/11/29 05:31:30;;;;;;;7.88;1.98;;;;;;;0.36;83.98;100695.56;5045913;28;20052;-70
2021/11/29 05:33:55;;;;;;;1.90;0.60;;;;;;;0.30;84.32;100708.47;5045472;28;20032;-71
2021/11/29 05:36:21;;;;;;;7.35;1.33;;;;;;;0.37;84.46;100722.38;5045715;28;20025;-69
2021/11/29 05:38:46;;;;;;;1.85;0.95;;;;;;;0.45;83.81;100733.63;5046091;28;20108;-68
2021/11/29 05:41:12;;;;;;;3.70;1.10;;;;;;;0.64;82.60;100733.75;5047033;28;20021;-70
2021/11/29 05:43:38;;;;;;;8.20;1.17;;;;;;;0.92;80.38;100746.00;5045663;28;20041;-68
2021/11/29 05:46:03;;;;;;;5.10;1.23;;;;;;;1.17;78.10;100752.16;5046282;28;20106;-69
2021/11/29 05:48:31;;;;;;;8.80;1.27;;;;;;;1.40;76.86;100764.34;5045859;28;20040;-69
2021/11/29 05:50:57;;;;;;;8.32;0.95;;;;;;;1.51;76.71;100756.59;5046005;28;20033;-71
2021/11/29 05:53:24;;;;;;;3.50;0.88;;;;;;;1.58;76.79;100752.25;5045849;28;20493;-69
2021/11/29 05:55:49;;;;;;;5.18;1.02;;;;;;;1.60;77.21;100746.19;5045862;28;20037;-71
2021/11/29 05:58:15;;;;;;;9.88;1.15;;;;;;;1.66;77.22;100742.78;5046442;28;20113;-69
2021/11/29 06:00:40;;;;;;;3.70;1.17;;;;;;;1.67;77.49;100733.22;5045726;28;20510;-71
2021/11/29 06:03:05;;;;;;;5.63;1.00;;;;;;;1.62;77.76;100730.63;5044484;28;20091;-69
2021/11/29 06:05:31;;;;;;;10.80;1.13;;;;;;;1.61;77.97;100731.50;5044023;28;20119;-70
2021/11/29 06:07:56;;;;;;;8.38;0.85;;;;;;;1.61;77.85;100731.50;5045364;28;20456;-70
2021/11/29 06:10:22;;;;;;;2.67;0.80;;;;;;;1.62;77.91;100733.22;5043693;28;20037;-70
2021/11/29 06:12:47;;;;;;;2.78;0.68;;;;;;;1.57;78.04;100727.16;5043160;28;20254;-69
2021/11/29 06:15:14;;;;;;;4.07;0.70;;;;;;;1.58;77.77;100739.28;5045360;28;20048;-69
2021/11/29 06:17:41;;;;;;;4.55;1.23;;;;;;;1.66;77.52;100760.06;5043217;28;20467;-69
2021/11/29 06:20:07;;;;;;;5.07;1.13;;;;;;;1.78;76.17;100773.09;5045553;28;20078;-70
2021/11/29 06:22:33;;;;;;;7.63;1.00;;;;;;;1.95;76.24;100777.41;5037940;28;20029;-70
2021/11/29 06:24:59;;;;;;;6.38;0.90;;;;;;;2.11;77.10;100770.53;5043760;28;20033;-70
2021/11/29 06:27:24;;;;;;;7.43;1.10;;;;;;;2.18;77.85;100754.06;5044712;28;20023;-70
2021/11/29 06:29:49;;;;;;;5.68;0.95;;;;;;;2.13;78.64;100771.38;5043756;28;20491;-70
2021/11/29 06:32:15;;;;;;;3.58;0.65;;;;;;;2.15;79.01;100769.66;5043873;28;20661;-69
2021/11/29 06:34:40;;;;;;;5.65;1.00;;;;;;;2.16;78.63;100781.78;5045093;28;20179;-69
2021/11/29 06:37:06;;;;;;;8.60;1.10;;;;;;;2.24;79.26;100779.19;5044323;28;20036;-69
2021/11/29 06:39:31;;;;;;;7.60;1.38;;;;;;;2.29;79.00;100773.97;5042409;28;20037;-70
2021/11/29 06:41:59;;;;;;;12.52;1.48;;;;;;;2.36;79.03;100775.69;5042623;28;20115;-68
2021/11/29 06:44:24;;;;;;;17.08;1.63;;;;;;;2.35;79.12;100777.44;5033720;28;20124;-70
2021/11/29 06:46:49;;;;;;;9.55;1.90;;;;;;;2.30;79.66;100768.78;5033041;28;20138;-72
2021/11/29 06:49:15;;;;;;;9.27;1.60;;;;;;;2.25;79.72;100771.38;5035810;28;20021;-70
2021/11/29 06:51:40;;;;;;;3.88;0.98;;;;;;;2.20;80.02;100770.50;5031658;28;20064;-68
2021/11/29 06:54:06;;;;;;;5.85;1.40;;;;;;;2.13;80.22;100773.97;5033699;28;20083;-67
2021/11/29 06:56:31;;;;;;;3.00;1.00;;;;;;;2.05;80.42;100784.38;5034076;28;20029;-65
2021/11/29 06:58:57;;;;;;;14.77;2.35;;;;;;;1.99;81.27;100786.97;5035219;28;20549;-65
2021/11/29 07:01:22;;;;;;;6.20;0.85;;;;;;;2.01;81.28;100799.09;5042986;28;20025;-65
2021/11/29 07:03:50;;;;;;;5.50;0.90;;;;;;;2.02;81.31;100795.63;5043608;28;20061;-67
2021/11/29 07:06:15;;;;;;;5.65;1.02;;;;;;;2.11;80.95;100812.13;5044320;28;20519;-69
2021/11/29 07:08:41;;;;;;;7.68;1.00;;;;;;;2.11;80.90;100814.72;5043872;28;20112;-69
2021/11/29 07:11:06;;;;;;;14.35;2.25;;;;;;;2.22;80.30;100818.19;5043407;28;20040;-70
2021/11/29 07:13:31;;;;;;;8.73;2.17;;;;;;;2.29;79.92;100812.97;5038527;28;20033;-68
2021/11/29 07:15:57;;;;;;;9.45;2.08;;;;;;;2.43;78.72;100799.97;5033885;28;20033;-72
2021/11/29 07:18:22;;;;;;;10.48;1.42;;;;;;;2.51;78.39;100793.91;5044375;28;20427;-71
2021/11/29 07:20:47;;;;;;;13.05;1.52;;;;;;;2.53;78.33;100786.09;5042199;28;20069;-67
2021/11/29 07:23:13;;;;;;;12.30;1.63;;;;;;;2.52;78.47;100790.44;5042415;28;20471;-68
2021/11/29 07:25:38;;;;;;;9.23;1.33;;;;;;;2.45;78.57;100793.91;5037923;28;20044;-66
2021/11/29 07:28:04;;;;;;;5.50;1.27;;;;;;;2.36;79.12;100791.31;5042857;28;20044;-66
2021/11/29 07:30:30;;;;;;;3.67;1.00;;;;;;;2.30;79.57;100797.38;5036187;28;20390;-66
2021/11/29 07:32:56;;;;;;;10.20;1.48;;;;;;;2.31;79.63;100800.84;5034960;28;20080;-65
2021/11/29 07:35:23;;;;;;;6.13;1.20;;;;;;;2.32;79.69;100808.63;5034452;28;20365;-72
2021/11/29 07:37:49;;;;;;;5.32;1.38;;;;;;;2.37;79.50;100811.25;5034627;28;20108;-72
2021/11/29 07:40:15;;;;;;;6.03;1.38;;;;;;;2.39;79.25;100815.59;5033981;28;20099;-68
2021/11/29 07:42:40;;;;;;;9.27;1.50;;;;;;;2.36;79.11;100822.53;5033140;28;20478;-71
2021/11/29 07:45:06;;;;;;;8.73;1.45;;;;;;;2.32;79.38;100831.19;5014924;28;20040;-75
2021/11/29 07:47:32;;;;;;;8.80;1.95;;;;;;;2.30;80.27;100838.13;5033564;28;20343;-73
2021/11/29 07:49:58;;;;;;;7.57;1.92;;;;;;;2.27;80.72;100847.66;5034396;28;20352;-74
2021/11/29 07:52:23;;;;;;;11.38;1.95;;;;;;;2.39;80.35;100859.81;5031026;28;20026;-72
2021/11/29 07:54:49;;;;;;;6.10;1.48;;;;;;;2.44;80.06;100858.94;5031887;28;20403;-72
2021/11/29 07:57:16;;;;;;;9.52;1.88;;;;;;;2.59;79.58;100856.31;5032374;28;20044;-73
2021/11/29 07:59:43;;;;;;;9.55;2.17;;;;;;;2.53;79.91;100854.59;5031742;28;20105;-73
2021/11/29 08:02:10;;;;;;;10.25;1.73;;;;;;;2.52;80.01;100860.66;5033879;28;20034;-72
2021/11/29 08:04:36;;;;;;;8.63;1.40;;;;;;;2.58;80.22;100858.91;5034138;28;20023;-75
2021/11/29 08:07:01;;;;;;;8.27;1.42;;;;;;;2.63;80.29;100854.59;5041378;28;20033;-73
2021/11/29 08:09:26;;;;;;;16.15;1.38;;;;;;;2.63;80.46;100863.28;5042634;28;20757;-72
2021/11/29 08:11:53;;;;;;;7.68;1.77;;;;;;;2.63;80.66;100870.19;5042679;28;20097;-74
2021/11/29 08:14:18;;;;;;;8.20;1.90;;;;;;;2.65;80.36;100863.28;5041450;28;20017;-75
2021/11/29 08:16:43;;;;;;;12.48;1.60;;;;;;;2.77;80.00;100868.44;5043107;28;20021;-74
2021/11/29 08:19:09;;;;;;;7.32;1.63;;;;;;;2.93;78.76;100865.84;5042512;28;20127;-74
2021/11/29 08:21:34;;;;;;;6.93;1.40;;;;;;;3.03;78.40;100862.34;5043392;28;20021;-75
2021/11/29 08:23:59;;;;;;;8.38;1.80;;;;;;;3.12;78.51;100869.28;5042193;28;20056;-74
2021/11/29 08:26:27;;;;;;;9.70;1.48;;;;;;;3.20;78.22;100869.25;5043241;28;20119;-76
2021/11/29 08:28:53;;;;;;;7.22;1.70;;;;;;;3.36;76.73;100862.25;5038728;28;20498;-74
2021/11/29 08:31:18;;;;;;;8.85;1.55;;;;;;;3.47;76.11;100864.81;5040515;28;20013;-76
2021/11/29 08:33:43;;;;;;;11.60;1.50;;;;;;;3.47;76.20;100877.84;5040707;28;20607;-75
2021/11/29 08:36:09;;;;;;;6.88;1.23;;;;;;;3.59;76.04;100876.06;5042541;28;20428;-76
2021/11/29 08:38:34;;;;;;;5.72;1.27;;;;;;;3.67;75.37;100876.88;5041481;28;20033;-76
2021/11/29 08:41:00;;;;;;;8.73;1.30;;;;;;;3.80;74.69;100885.53;5041482;28;20052;-75
2021/11/29 08:43:26;;;;;;;4.90;1.27;;;;;;;3.87;74.44;100883.75;5036083;28;20025;-74
2021/11/29 08:45:53;;;;;;;6.55;1.00;;;;;;;3.99;73.47;100873.25;5030568;28;20127;-73
2021/11/29 08:48:19;;;;;;;4.97;1.10;;;;;;;4.12;72.83;100883.63;5030462;28;20369;-73
2021/11/29 08:50:47;;;;;;;5.10;1.27;;;;;;;4.24;71.62;100883.53;5033535;28;20025;-72
2021/11/29 08:53:15;;;;;;;10.05;1.40;;;;;;;4.36;71.01;100881.72;5042181;28;20139;-75
2021/11/29 08:55:40;;;;;;;7.35;1.15;;;;;;;4.46;70.84;100898.16;5024971;28;20032;-73
2021/11/29 08:58:06;;;;;;;7.78;1.40;;;;;;;4.49;70.96;100925.09;5042220;28;20017;-72
2021/11/29 09:00:33;;;;;;;14.77;1.50;;;;;;;4.48;72.42;100917.28;5041984;28;20078;-75
2021/11/29 09:03:00;;;;;;;7.53;1.60;;;;;;;4.39;73.43;100932.13;5041900;28;20525;-74
2021/11/29 09:05:26;;;;;;;10.73;1.00;;;;;;;4.29;74.19;100918.28;5021305;28;20076;-73
2021/11/29 09:07:52;;;;;;;4.25;0.93;;;;;;;4.09;75.02;100921.00;5042673;28;20099;-75
2021/11/29 09:10:17;;;;;;;6.90;1.30;;;;;;;3.75;77.02;100931.59;5042418;28;20282;-73
2021/11/29 09:12:43;;;;;;;6.53;1.60;;;;;;;3.69;77.72;100936.81;5046873;28;20459;-76
2021/11/29 09:15:11;;;;;;;6.80;1.05;;;;;;;3.63;77.79;100943.78;5042668;28;20035;-73
2021/11/29 09:17:37;;;;;;;9.67;1.40;;;;;;;3.58;78.01;100932.50;5045249;28;20042;-75
2021/11/29 09:20:05;;;;;;;7.35;1.52;;;;;;;3.66;77.84;100940.31;5031438;28;20291;-74
2021/11/29 09:22:30;;;;;;;16.70;2.22;;;;;;;3.61;78.17;100934.25;5045847;28;20100;-75
2021/11/29 09:24:55;;;;;;;6.97;1.38;;;;;;;3.54;79.75;100938.59;5029099;28;20486;-73
2021/11/29 09:27:22;;;;;;;11.45;1.33;;;;;;;3.57;78.32;100953.34;5014712;28;20457;-73
2021/11/29 09:29:49;;;;;;;6.60;1.20;;;;;;;3.48;79.33;100965.56;5018241;28;20075;-74
2021/11/29 09:32:15;;;;;;;3.45;1.60;;;;;;;3.42;79.52;100960.34;5009757;28;20631;-68
2021/11/29 09:34:41;;;;;;;5.10;1.30;;;;;;;3.41;79.57;100954.25;5014855;28;20356;-73
2021/11/29 09:37:06;;;;;;;4.95;1.15;;;;;;;3.54;79.19;100951.63;5018223;28;20037;-74
2021/11/29 09:39:31;;;;;;;5.15;1.00;;;;;;;3.58;78.92;100945.53;5021673;28;20108;-75
2021/11/29 09:41:57;;;;;;;9.13;1.13;;;;;;;3.72;79.61;100953.31;5020821;28;20017;-74
2021/11/29 09:44:22;;;;;;;4.40;1.13;;;;;;;4.01;78.72;100967.13;5023322;28;20044;-73
2021/11/29 09:46:48;;;;;;;4.70;1.50;;;;;;;4.05;78.43;100981.88;5022045;28;20029;-73
2021/11/29 09:49:13;;;;;;;6.95;1.40;;;;;;;4.10;78.13;100994.88;5015937;28;20114;-64
2021/11/29 09:51:38;;;;;;;2.80;0.93;;;;;;;3.98;78.12;100977.56;5012916;28;20100;-69
2021/11/29 09:54:07;;;;;;;2.08;1.02;;;;;;;3.92;77.88;100987.13;5021946;28;20680;-71
2021/11/29 09:56:33;;;;;;;8.30;1.27;;;;;;;3.70;79.20;100996.75;5015995;28;20281;-70
2021/11/29 09:58:59;;;;;;;9.45;1.73;;;;;;;3.60;79.85;100995.91;5001364;28;20502;-71
2021/11/29 10:01:24;;;;;;;5.53;1.20;;;;;;;3.62;79.44;100991.59;4987111;28;20028;-71
2021/11/29 10:03:49;;;;;;;4.03;1.33;;;;;;;3.78;78.89;101008.03;5021951;28;20052;-70
2021/11/29 10:06:15;;;;;;;8.27;1.50;;;;;;;3.86;78.71;100996.72;5021037;28;20021;-71
2021/11/29 10:08:41;;;;;;;7.28;1.23;;;;;;;3.86;78.78;100997.59;5020984;28;20024;-71
2021/11/29 10:11:12;;;;;;;3.08;0.88;;;;;;;3.76;79.23;100999.34;5015213;28;20226;-69
2021/11/29 10:13:54;;;;;;;6.80;1.00;;;;;;;3.74;78.92;100997.63;5016495;28;20037;-71
2021/11/29 10:16:39;;;;;;;2.70;0.80;;;;;;;3.78;78.98;100996.75;5021358;28;20495;-71
2021/11/29 10:19:18;;;;;;;5.47;1.00;;;;;;;3.89;78.62;100986.28;5021511;28;20119;-71
2021/11/29 10:21:43;;;;;;;2.05;0.45;;;;;;;3.99;78.44;100981.88;5017923;28;20025;-69
2021/11/29 10:24:16;;;;;;;4.22;1.00;;;;;;;4.10;78.24;100998.38;5019872;28;20043;-70
2021/11/29 10:26:48;;;;;;;6.07;1.20;;;;;;;4.03;77.19;101007.94;5020618;28;20102;-69
2021/11/29 10:29:14;;;;;;;2.10;0.80;;;;;;;3.99;78.80;101006.22;5018898;28;20150;-69
2021/11/29 10:31:45;;;;;;;2.17;0.68;;;;;;;3.86;79.41;101013.25;5019527;28;20498;-69
2021/11/29 10:34:15;;;;;;;5.68;1.02;;;;;;;3.85;79.25;101023.66;5019305;28;20028;-65
2021/11/29 10:36:44;;;;;;;1.55;0.90;;;;;;;3.86;79.06;101023.66;5013205;28;20380;-75
2021/11/29 10:39:19;;;;;;;3.33;1.10;;;;;;;3.75;79.88;101009.78;5010494;28;20513;-70
2021/11/29 10:42:06;;;;;;;4.55;0.88;;;;;;;3.65;79.99;101025.44;5008925;28;20045;-68
2021/11/29 10:44:34;;;;;;;1.17;0.50;;;;;;;3.61;80.17;101030.69;5014953;28;20111;-70
2021/11/29 10:47:12;;;;;;;3.30;0.70;;;;;;;3.70;79.90;101029.78;5001748;28;20033;-75
2021/11/29 10:49:40;;;;;;;0.90;0.60;;;;;;;3.67;79.68;101033.25;5004945;28;20021;-68
2021/11/29 10:52:07;;;;;;;1.30;0.52;;;;;;;3.66;80.30;101027.19;5019004;28;20044;-71
2021/11/29 10:54:34;;;;;;;1.52;0.70;;;;;;;3.73;79.50;101016.75;5018142;28;20033;-68
2021/11/29 10:57:01;;;;;;;2.00;0.70;;;;;;;3.66;79.52;101023.69;5022336;28;20611;-69
2021/11/29 10:59:37;;;;;;;0.77;0.50;;;;;;;3.63;79.87;101023.72;5019200;28;20185;-68
2021/11/29 11:02:08;;;;;;;1.58;0.80;;;;;;;3.72;79.56;101015.88;5021517;28;20493;-71
2021/11/29 11:04:38;;;;;;;2.03;0.70;;;;;;;3.84;79.47;101014.09;5018919;28;20433;-67
2021/11/29 11:07:11;;;;;;;;;;;;;;;3.95;79.12;101038.41;5013758;28;20128;-70
2021/11/29 11:09:39;;;;;;;4.60;0.98;;;;;;;3.90;79.44;101045.38;5011441;28;19924;-68
2021/11/29 11:12:08;;;;;;;4.72;0.70;;;;;;;3.83;80.10;101054.97;5022526;28;20609;-67
2021/11/29 11:14:38;;;;;;;3.10;0.60;;;;;;;3.67;81.31;101059.31;5029469;28;20327;-69
2021/11/29 11:17:05;;;;;;;2.30;0.77;;;;;;;3.60;81.41;101055.84;5041318;28;20029;-64
2021/11/29 11:19:34;;;;;;;2.85;0.47;;;;;;;3.49;80.62;101050.66;5042357;28;20044;-68
2021/11/29 11:22:02;;;;;;;2.03;0.45;;;;;;;3.44;80.03;101052.41;5042074;28;20025;-73
2021/11/29 11:24:31;;;;;;;1.80;0.50;;;;;;;3.45;80.36;101048.03;5040933;28;20074;-73
2021/11/29 11:26:59;;;;;;;2.65;0.60;;;;;;;3.44;80.42;101042.00;5042783;28;20021;-68
2021/11/29 11:30:01;;;;;;;0.38;0.38;;;;;;;3.39;80.62;101041.09;5042937;28;20223;-68